Time;durP1;ratioP1;P1;durP2;ratioP2;P2;SDS_P1;SDS_P2;PMS_P1;PMS_P2;Temp;Humidity;BMP_temperature;BMP_pressure;BME280_temperature;BME280_humidity;BME280_pressure;Samples;Min_cycle;Max_cycle;Signal;HPM_P1;HPM_P2
2023/07/27 00:00:57;;;;;;;4.78;3.25;;;12.90;99.90;;;;;;5013658;28;20050;-77
2023/07/27 00:03:22;;;;;;;6.97;3.13;;;13.00;99.90;;;;;;5012688;28;20100;-76
2023/07/27 00:05:48;;;;;;;5.60;3.03;;;13.10;99.90;;;;;;5013442;28;20602;-77
2023/07/27 00:08:14;;;;;;;5.93;3.17;;;13.20;99.90;;;;;;5012924;28;20050;-76
2023/07/27 00:10:40;;;;;;;5.68;3.38;;;13.30;99.90;;;;;;5011887;28;20038;-76
2023/07/27 00:13:06;;;;;;;5.68;3.30;;;13.40;99.90;;;;;;5012617;28;20117;-76
2023/07/27 00:15:32;;;;;;;4.80;3.15;;;13.40;99.90;;;;;;5013638;28;20191;-76
2023/07/27 00:17:57;;;;;;;5.00;3.28;;;13.50;99.90;;;;;;5013586;28;20449;-76
2023/07/27 00:20:23;;;;;;;5.18;2.88;;;13.60;99.90;;;;;;5019410;28;20251;-76
2023/07/27 00:22:49;;;;;;;4.75;2.92;;;13.60;99.90;;;;;;5013002;28;20046;-76
2023/07/27 00:25:15;;;;;;;5.93;2.95;;;13.70;99.90;;;;;;5028864;28;20077;-76
2023/07/27 00:27:40;;;;;;;5.18;2.83;;;13.70;99.90;;;;;;5020295;28;20041;-76
2023/07/27 00:30:07;;;;;;;4.80;2.67;;;13.70;99.90;;;;;;5015027;28;20038;-76
2023/07/27 00:32:32;;;;;;;4.88;2.88;;;13.80;99.90;;;;;;5015019;28;20129;-76
2023/07/27 00:34:58;;;;;;;4.03;2.83;;;13.80;99.90;;;;;;5012973;28;20120;-76
2023/07/27 00:37:24;;;;;;;4.72;3.00;;;13.80;99.90;;;;;;5019096;28;20045;-75
2023/07/27 00:39:50;;;;;;;5.40;2.83;;;13.80;99.90;;;;;;5011914;28;20053;-75
2023/07/27 00:42:16;;;;;;;4.68;2.20;;;13.80;99.90;;;;;;5000331;28;20046;-75
2023/07/27 00:44:41;;;;;;;4.90;3.03;;;13.80;99.90;;;;;;5013246;28;20045;-75
2023/07/27 00:47:07;;;;;;;4.45;2.85;;;13.80;99.90;;;;;;5013289;28;20120;-75
2023/07/27 00:49:33;;;;;;;3.75;2.17;;;13.90;99.90;;;;;;5011637;28;20046;-76
2023/07/27 00:52:05;;;;;;;4.93;2.75;;;13.90;99.90;;;;;;5017324;28;20045;-75
2023/07/27 00:54:32;;;;;;;4.80;2.58;;;14.00;99.90;;;;;;5012935;28;20049;-76
2023/07/27 00:56:57;;;;;;;4.35;2.60;;;14.00;99.90;;;;;;5012949;28;20386;-75
2023/07/27 00:59:23;;;;;;;4.40;2.55;;;14.00;99.90;;;;;;5012910;28;20042;-75
2023/07/27 01:01:49;;;;;;;5.50;2.88;;;14.10;99.90;;;;;;5013189;28;20430;-76
2023/07/27 01:04:16;;;;;;;4.45;2.70;;;14.10;99.90;;;;;;5024217;28;20042;-75
2023/07/27 01:06:42;;;;;;;5.82;3.00;;;14.10;99.90;;;;;;5027814;28;20442;-76
2023/07/27 01:09:07;;;;;;;4.95;2.88;;;14.10;99.90;;;;;;5012927;28;20037;-76
2023/07/27 01:12:03;;;;;;;4.32;2.70;;;14.10;99.90;;;;;;5024004;28;20073;-76
2023/07/27 01:14:57;;;;;;;5.75;2.88;;;14.10;99.90;;;;;;5017653;28;20048;-76
2023/07/27 01:17:28;;;;;;;4.18;2.58;;;14.10;99.90;;;;;;4994505;28;20050;-75
2023/07/27 01:19:59;;;;;;;5.90;3.03;;;14.10;99.90;;;;;;5010564;28;20049;-76
2023/07/27 01:22:45;;;;;;;4.22;2.75;;;14.10;99.90;;;;;;4995074;28;20042;-76
2023/07/27 01:25:32;;;;;;;5.27;3.00;;;14.10;99.90;;;;;;5003673;28;20081;-76
2023/07/27 01:28:19;;;;;;;4.10;2.72;;;14.10;99.90;;;;;;4995668;28;20296;-75
2023/07/27 01:30:53;;;;;;;5.03;2.88;;;14.10;99.90;;;;;;5011310;28;20099;-75
2023/07/27 01:33:32;;;;;;;7.97;3.40;;;14.10;99.90;;;;;;5012160;28;20502;-75
2023/07/27 01:36:03;;;;;;;4.55;3.13;;;14.10;99.90;;;;;;5012219;28;20113;-75
2023/07/27 01:38:32;;;;;;;5.47;3.08;;;14.10;99.90;;;;;;5023631;28;20056;-75
2023/07/27 01:40:59;;;;;;;6.53;3.40;;;14.10;99.90;;;;;;5012766;28;20076;-75
2023/07/27 01:43:27;;;;;;;4.47;2.60;;;14.00;99.90;;;;;;5034677;28;20188;-75
2023/07/27 01:45:55;;;;;;;4.30;2.83;;;14.10;99.90;;;;;;5012502;28;20351;-75
2023/07/27 01:48:23;;;;;;;4.55;2.70;;;14.00;99.90;;;;;;5012654;28;20033;-75
2023/07/27 01:50:50;;;;;;;4.57;2.70;;;14.00;99.90;;;;;;5012691;28;20038;-75
2023/07/27 01:53:18;;;;;;;4.63;2.92;;;14.00;99.90;;;;;;5011530;28;20044;-76
2023/07/27 01:55:44;;;;;;;4.35;2.95;;;14.00;99.90;;;;;;5010941;28;20534;-76
2023/07/27 01:58:10;;;;;;;4.63;3.03;;;14.10;99.90;;;;;;5016059;28;20073;-75
2023/07/27 02:00:36;;;;;;;6.43;3.47;;;14.00;99.90;;;;;;5016227;28;20050;-76
2023/07/27 02:03:02;;;;;;;6.57;3.25;;;14.00;99.90;;;;;;5028819;28;20038;-76
2023/07/27 02:05:28;;;;;;;4.95;2.90;;;14.00;99.90;;;;;;5014418;28;20108;-76
2023/07/27 02:07:53;;;;;;;5.63;3.10;;;14.00;99.90;;;;;;5033871;28;20099;-75
2023/07/27 02:10:20;;;;;;;5.85;3.22;;;14.00;99.90;;;;;;5030916;28;20042;-75
2023/07/27 02:13:08;;;;;;;5.90;3.40;;;14.00;99.90;;;;;;5016273;28;20053;-75
2023/07/27 02:15:39;;;;;;;6.53;3.58;;;14.00;99.90;;;;;;5012645;28;20072;-75
2023/07/27 02:18:15;;;;;;;5.82;2.95;;;14.00;99.90;;;;;;5000518;28;20429;-76
2023/07/27 02:20:41;;;;;;;6.32;3.45;;;13.90;99.90;;;;;;5015397;28;20100;-75
2023/07/27 02:23:10;;;;;;;6.55;3.45;;;13.90;99.90;;;;;;4999039;28;20046;-76
2023/07/27 02:25:35;;;;;;;5.00;2.90;;;13.90;99.90;;;;;;5015757;28;20069;-75
2023/07/27 02:28:01;;;;;;;5.78;3.15;;;13.80;99.90;;;;;;5015721;28;20034;-75
2023/07/27 02:30:27;;;;;;;6.68;3.90;;;13.80;99.90;;;;;;5031838;28;20125;-75
2023/07/27 02:32:53;;;;;;;6.47;3.65;;;13.80;99.90;;;;;;5014986;28;20088;-75
2023/07/27 02:35:20;;;;;;;4.65;2.90;;;13.90;99.90;;;;;;5015649;28;20034;-75
2023/07/27 02:37:46;;;;;;;5.85;3.30;;;13.80;99.90;;;;;;5015011;28;20038;-76
2023/07/27 02:40:11;;;;;;;5.68;3.30;;;13.80;99.90;;;;;;5031244;28;20520;-75
2023/07/27 02:42:37;;;;;;;5.72;3.20;;;13.80;99.90;;;;;;5015068;28;20049;-75
2023/07/27 02:45:03;;;;;;;7.78;3.70;;;13.80;99.90;;;;;;5015230;28;20478;-75
2023/07/27 02:47:29;;;;;;;7.55;3.30;;;13.80;99.90;;;;;;5015205;28;20123;-75
2023/07/27 02:49:54;;;;;;;5.25;3.42;;;13.80;99.90;;;;;;5015774;28;20034;-75
2023/07/27 02:52:20;;;;;;;5.63;3.03;;;13.80;99.90;;;;;;5013868;28;20046;-75
2023/07/27 02:54:46;;;;;;;5.57;3.47;;;13.80;99.90;;;;;;4997780;28;20049;-76
2023/07/27 02:57:11;;;;;;;6.65;3.50;;;13.80;99.90;;;;;;5015068;28;20127;-76
2023/07/27 02:59:37;;;;;;;5.72;3.60;;;13.80;99.90;;;;;;5015070;28;20053;-75
2023/07/27 03:02:03;;;;;;;6.57;3.45;;;13.80;99.90;;;;;;5013762;28;20415;-75
2023/07/27 03:04:28;;;;;;;5.97;3.70;;;13.80;99.90;;;;;;5014159;28;20375;-75
2023/07/27 03:06:54;;;;;;;6.78;3.70;;;13.80;99.90;;;;;;5014917;28;20049;-75
2023/07/27 03:09:20;;;;;;;10.52;3.53;;;13.80;99.90;;;;;;5013689;28;20042;-74
2023/07/27 03:11:45;;;;;;;6.30;4.00;;;13.90;99.90;;;;;;5014826;28;20034;-74
2023/07/27 03:14:11;;;;;;;6.18;3.85;;;13.80;99.90;;;;;;5014850;28;20539;-74
2023/07/27 03:16:37;;;;;;;6.15;3.53;;;13.80;99.90;;;;;;5014897;28;20046;-75
2023/07/27 03:19:02;;;;;;;6.63;3.50;;;13.70;99.90;;;;;;5015485;28;20490;-73
2023/07/27 03:21:28;;;;;;;6.80;4.05;;;13.70;99.90;;;;;;5014950;28;20526;-74
2023/07/27 03:23:54;;;;;;;6.60;3.47;;;13.70;99.90;;;;;;5015056;28;20513;-74
2023/07/27 03:26:19;;;;;;;6.78;3.50;;;13.80;99.90;;;;;;5013355;28;20391;-74
2023/07/27 03:28:45;;;;;;;8.05;4.03;;;13.80;99.90;;;;;;5014333;28;20182;-75
2023/07/27 03:31:26;;;;;;;6.25;3.80;;;13.90;99.90;;;;;;5013632;28;20048;-75
2023/07/27 03:33:52;;;;;;;6.53;4.10;;;14.00;99.90;;;;;;5011667;28;20044;-75
2023/07/27 03:36:19;;;;;;;5.13;3.70;;;14.00;99.90;;;;;;5020078;28;20136;-74
2023/07/27 03:38:46;;;;;;;6.05;4.03;;;14.00;99.90;;;;;;5010682;28;20037;-74
2023/07/27 03:41:13;;;;;;;6.53;4.10;;;14.00;99.90;;;;;;5013039;28;20061;-74
2023/07/27 03:43:38;;;;;;;6.38;4.32;;;13.90;99.90;;;;;;5014648;28;20193;-73
2023/07/27 03:46:04;;;;;;;6.57;4.15;;;13.90;99.90;;;;;;5014200;28;20152;-73
2023/07/27 03:48:30;;;;;;;6.63;4.45;;;13.80;99.90;;;;;;5014258;28;20112;-73
2023/07/27 03:51:00;;;;;;;7.43;4.60;;;13.80;99.90;;;;;;5013005;28;20041;-74
2023/07/27 03:53:26;;;;;;;7.07;4.97;;;13.80;99.90;;;;;;5013958;28;20046;-73
2023/07/27 03:55:52;;;;;;;6.88;4.38;;;13.80;99.90;;;;;;5041754;28;20070;-73
2023/07/27 03:58:17;;;;;;;7.55;4.22;;;13.70;99.90;;;;;;5013560;28;20073;-74
2023/07/27 04:00:43;;;;;;;8.65;4.60;;;13.70;99.90;;;;;;4997338;28;20045;-74
2023/07/27 04:03:09;;;;;;;10.95;4.80;;;13.60;99.90;;;;;;5013619;28;20045;-74
2023/07/27 04:05:34;;;;;;;8.68;4.80;;;13.60;99.90;;;;;;5012910;28;20053;-74
2023/07/27 04:08:00;;;;;;;6.85;4.80;;;13.50;99.90;;;;;;5032190;28;20049;-75
2023/07/27 04:10:26;;;;;;;7.43;4.88;;;13.50;99.90;;;;;;5013509;28;20471;-75
2023/07/27 04:12:52;;;;;;;7.22;4.78;;;13.50;99.90;;;;;;5013738;28;20467;-74
2023/07/27 04:15:18;;;;;;;7.50;5.00;;;13.50;99.90;;;;;;5013468;28;20038;-74
2023/07/27 04:17:44;;;;;;;9.75;5.35;;;13.40;99.90;;;;;;5013777;28;20049;-74
2023/07/27 04:20:10;;;;;;;8.35;4.97;;;13.40;99.90;;;;;;5015157;28;20493;-74
2023/07/27 04:22:36;;;;;;;7.70;5.20;;;13.40;99.90;;;;;;5012578;28;20045;-74
2023/07/27 04:25:02;;;;;;;7.85;5.13;;;13.40;99.90;;;;;;5013041;28;20478;-76
2023/07/27 04:27:27;;;;;;;7.82;4.95;;;13.30;99.90;;;;;;5045204;28;20084;-74
2023/07/27 04:29:53;;;;;;;8.30;4.55;;;13.30;99.90;;;;;;5012473;28;20034;-74
2023/07/27 04:32:19;;;;;;;8.25;5.07;;;13.30;99.90;;;;;;5013309;28;20041;-75
2023/07/27 04:34:44;;;;;;;9.65;5.35;;;13.30;99.90;;;;;;5012810;28;20048;-73
2023/07/27 04:37:10;;;;;;;6.32;4.78;;;13.40;99.90;;;;;;5013219;28;20088;-75
2023/07/27 04:39:36;;;;;;;10.00;5.47;;;13.40;99.90;;;;;;5011981;28;20079;-74
2023/07/27 04:42:01;;;;;;;8.45;5.22;;;13.40;99.90;;;;;;5013260;28;20099;-75
2023/07/27 04:44:27;;;;;;;8.45;5.22;;;13.40;99.90;;;;;;5012699;28;20375;-75
2023/07/27 04:46:53;;;;;;;8.07;5.00;;;13.40;99.90;;;;;;5013295;28;20076;-77
2023/07/27 04:49:19;;;;;;;7.43;4.32;;;13.40;99.90;;;;;;5012883;28;20042;-75
2023/07/27 04:51:45;;;;;;;8.05;4.47;;;13.40;99.90;;;;;;5013348;28;20410;-75
2023/07/27 04:54:11;;;;;;;6.85;3.95;;;13.40;99.90;;;;;;5012043;28;20038;-75
2023/07/27 04:56:36;;;;;;;6.40;4.57;;;13.40;99.90;;;;;;5011809;28;20050;-74
2023/07/27 04:59:02;;;;;;;6.45;4.10;;;13.50;99.90;;;;;;5016853;28;20041;-75
2023/07/27 05:01:28;;;;;;;6.90;3.85;;;13.50;99.90;;;;;;4995608;28;20046;-75
2023/07/27 05:03:53;;;;;;;7.03;4.25;;;13.50;99.90;;;;;;5015964;28;20049;-75
2023/07/27 05:06:19;;;;;;;6.15;3.67;;;13.50;99.90;;;;;;5013037;28;20081;-75
2023/07/27 05:08:45;;;;;;;7.25;3.70;;;13.50;99.90;;;;;;5012323;28;20376;-75
2023/07/27 05:11:10;;;;;;;5.38;3.85;;;13.60;99.90;;;;;;5012886;28;20042;-75
2023/07/27 05:13:36;;;;;;;7.13;4.10;;;13.60;99.90;;;;;;5012436;28;20045;-74
2023/07/27 05:16:02;;;;;;;7.65;4.18;;;13.60;99.90;;;;;;5011877;28;20026;-74
2023/07/27 05:18:28;;;;;;;8.07;4.70;;;13.70;99.90;;;;;;5012974;28;20116;-74
2023/07/27 05:20:55;;;;;;;8.45;4.50;;;13.70;99.90;;;;;;5012793;28;20168;-74
2023/07/27 05:23:20;;;;;;;8.07;4.80;;;13.80;99.90;;;;;;5012676;28;20038;-74
2023/07/27 05:25:47;;;;;;;7.90;4.80;;;13.80;99.90;;;;;;5012761;28;20391;-74
2023/07/27 05:28:13;;;;;;;9.63;4.82;;;13.80;99.90;;;;;;5012913;28;20160;-74
2023/07/27 05:30:39;;;;;;;7.68;4.45;;;13.80;99.90;;;;;;5012782;28;20467;-74
2023/07/27 05:33:05;;;;;;;7.05;4.60;;;13.80;99.90;;;;;;5030616;28;20045;-74
2023/07/27 05:35:31;;;;;;;7.28;4.43;;;13.90;99.90;;;;;;5016599;28;20402;-74
2023/07/27 05:37:56;;;;;;;6.60;4.45;;;13.90;99.90;;;;;;5016381;28;20041;-74
2023/07/27 05:40:22;;;;;;;5.63;3.92;;;13.90;99.90;;;;;;5015431;28;20034;-74
2023/07/27 05:42:48;;;;;;;7.32;4.53;;;13.90;99.90;;;;;;5016345;28;20123;-74
2023/07/27 05:45:13;;;;;;;6.38;4.20;;;13.90;99.90;;;;;;5016924;28;20087;-74
2023/07/27 05:47:39;;;;;;;6.25;4.10;;;13.90;99.90;;;;;;5015052;28;20462;-74
2023/07/27 05:50:06;;;;;;;6.60;4.15;;;13.90;99.90;;;;;;5016542;28;20084;-74
2023/07/27 05:52:32;;;;;;;7.13;4.43;;;13.90;99.90;;;;;;5015989;28;20425;-73
2023/07/27 05:54:58;;;;;;;7.75;5.05;;;13.90;99.90;;;;;;5018858;28;20371;-74
2023/07/27 05:57:24;;;;;;;7.75;4.85;;;13.90;99.90;;;;;;5016381;28;20045;-74
2023/07/27 05:59:50;;;;;;;7.60;4.93;;;14.00;99.90;;;;;;4999193;28;20054;-74
2023/07/27 06:02:15;;;;;;;8.90;5.70;;;14.00;99.90;;;;;;5016527;28;20414;-74
2023/07/27 06:04:41;;;;;;;9.65;6.03;;;14.10;99.90;;;;;;5015589;28;20129;-74
2023/07/27 06:07:07;;;;;;;8.93;6.00;;;14.00;99.90;;;;;;5016021;28;20056;-78
2023/07/27 06:09:36;;;;;;;8.98;5.90;;;14.10;99.90;;;;;;5015181;28;20394;-68
2023/07/27 06:12:09;;;;;;;8.25;5.25;;;14.10;99.90;;;;;;5015657;28;20478;-69
2023/07/27 06:14:35;;;;;;;9.70;5.82;;;14.20;99.90;;;;;;5015973;28;20070;-69
2023/07/27 06:17:01;;;;;;;9.38;5.80;;;14.10;99.90;;;;;;5015730;28;20076;-67
2023/07/27 06:19:26;;;;;;;8.82;6.10;;;14.20;99.90;;;;;;5016128;28;20045;-67
2023/07/27 06:21:52;;;;;;;8.18;5.97;;;14.20;99.90;;;;;;5014056;28;20522;-67
2023/07/27 06:24:18;;;;;;;11.02;6.40;;;14.20;99.90;;;;;;5014788;28;20127;-68
2023/07/27 06:26:43;;;;;;;10.88;6.95;;;14.20;99.90;;;;;;5015326;28;20049;-68
2023/07/27 06:29:09;;;;;;;10.27;6.88;;;14.20;99.90;;;;;;5015709;28;20049;-68
2023/07/27 06:31:35;;;;;;;9.65;6.50;;;14.20;99.90;;;;;;5015565;28;20077;-67
2023/07/27 06:34:00;;;;;;;9.35;6.55;;;14.20;99.90;;;;;;5015196;28;20041;-68
2023/07/27 06:36:26;;;;;;;9.63;5.95;;;14.30;99.90;;;;;;5015687;28;20125;-68
2023/07/27 06:38:51;;;;;;;8.18;6.00;;;14.30;99.90;;;;;;5022570;28;20030;-69
2023/07/27 06:41:19;;;;;;;9.80;6.38;;;14.20;99.90;;;;;;5015080;28;20042;-69
2023/07/27 06:43:45;;;;;;;10.07;6.55;;;14.30;99.90;;;;;;5014888;28;20077;-69
2023/07/27 06:46:11;;;;;;;8.20;5.93;;;14.30;99.90;;;;;;5015887;28;20080;-68
2023/07/27 06:48:37;;;;;;;8.55;5.47;;;14.40;99.90;;;;;;5027021;28;20104;-69
2023/07/27 06:51:02;;;;;;;8.48;5.60;;;14.40;99.90;;;;;;5015126;28;20042;-69
2023/07/27 06:53:28;;;;;;;7.50;5.30;;;14.40;99.90;;;;;;5013927;28;20433;-69
2023/07/27 06:55:54;;;;;;;8.45;5.55;;;14.50;99.90;;;;;;5015020;28;20052;-71
2023/07/27 06:58:19;;;;;;;8.45;5.70;;;14.50;99.90;;;;;;5006139;28;20499;-70
2023/07/27 07:00:45;;;;;;;6.97;5.18;;;14.50;99.90;;;;;;5011622;28;20046;-68
2023/07/27 07:03:11;;;;;;;8.45;5.78;;;14.60;99.90;;;;;;5013647;28;20112;-66
2023/07/27 07:05:36;;;;;;;7.32;5.32;;;14.60;99.90;;;;;;5007972;28;20053;-67
2023/07/27 07:08:02;;;;;;;7.10;4.88;;;14.70;99.90;;;;;;5010275;28;20050;-68
2023/07/27 07:10:28;;;;;;;7.53;4.72;;;14.70;99.90;;;;;;5009525;28;20073;-67
2023/07/27 07:12:53;;;;;;;7.43;5.47;;;14.80;99.90;;;;;;5007674;28;20125;-67
2023/07/27 07:15:19;;;;;;;5.80;4.38;;;14.80;99.90;;;;;;5014500;28;20080;-68
2023/07/27 07:17:45;;;;;;;6.85;4.18;;;14.90;99.90;;;;;;5014370;28;20049;-68
2023/07/27 07:20:11;;;;;;;6.13;4.13;;;14.90;99.90;;;;;;4996266;28;20046;-68
2023/07/27 07:22:37;;;;;;;6.72;4.68;;;14.90;99.90;;;;;;5014146;28;20034;-67
2023/07/27 07:25:03;;;;;;;6.65;4.35;;;14.90;99.90;;;;;;5010302;28;20104;-66
2023/07/27 07:27:29;;;;;;;6.05;4.05;;;15.00;99.90;;;;;;5012497;28;20184;-67
2023/07/27 07:29:54;;;;;;;6.00;4.22;;;15.00;99.90;;;;;;5010067;28;20100;-67
2023/07/27 07:32:20;;;;;;;5.32;4.15;;;15.00;99.90;;;;;;5013629;28;20034;-69
2023/07/27 07:34:45;;;;;;;6.30;4.13;;;15.00;99.90;;;;;;5010874;28;20038;-68
2023/07/27 07:37:11;;;;;;;7.00;4.63;;;14.90;99.90;;;;;;5012574;28;20042;-67
2023/07/27 07:39:37;;;;;;;4.95;3.65;;;14.90;99.90;;;;;;5013984;28;20073;-70
2023/07/27 07:42:03;;;;;;;6.57;3.97;;;15.00;99.90;;;;;;5013334;28;20033;-68
2023/07/27 07:44:29;;;;;;;6.97;4.15;;;15.00;99.90;;;;;;5013644;28;20434;-69
2023/07/27 07:46:55;;;;;;;6.43;3.75;;;15.00;99.90;;;;;;5014044;28;20052;-68
2023/07/27 07:49:25;;;;;;;6.47;4.00;;;15.00;99.90;;;;;;5011808;28;20437;-67
2023/07/27 07:51:50;;;;;;;5.70;4.20;;;15.00;99.90;;;;;;5013306;28;20098;-68
2023/07/27 07:54:16;;;;;;;5.45;4.03;;;15.00;99.90;;;;;;5012494;28;20378;-67
2023/07/27 07:56:42;;;;;;;7.72;4.47;;;15.00;99.90;;;;;;5012741;28;20498;-68
2023/07/27 07:59:07;;;;;;;6.15;4.50;;;15.00;99.90;;;;;;5013370;28;20063;-69
2023/07/27 08:01:33;;;;;;;5.43;4.45;;;15.00;99.90;;;;;;5013170;28;20034;-69
2023/07/27 08:03:59;;;;;;;6.13;4.70;;;15.00;99.90;;;;;;5011889;28;20046;-68
2023/07/27 08:06:25;;;;;;;6.13;5.00;;;15.00;99.90;;;;;;5012818;28;20046;-69
2023/07/27 08:08:51;;;;;;;6.05;4.43;;;15.10;99.90;;;;;;5007644;28;20156;-68
2023/07/27 08:11:17;;;;;;;6.18;4.70;;;15.00;99.90;;;;;;5006028;28;20550;-69
2023/07/27 08:13:42;;;;;;;7.30;5.65;;;15.10;99.90;;;;;;5008249;28;20034;-69
2023/07/27 08:16:08;;;;;;;7.13;5.00;;;15.10;99.90;;;;;;5008457;28;20095;-69
2023/07/27 08:18:34;;;;;;;6.07;4.82;;;15.10;99.90;;;;;;5013078;28;20048;-69
2023/07/27 08:21:05;;;;;;;5.88;5.22;;;15.10;99.90;;;;;;5012886;28;20051;-68
2023/07/27 08:23:31;;;;;;;5.18;4.63;;;15.20;99.90;;;;;;5012225;28;20060;-68
2023/07/27 08:25:57;;;;;;;4.72;4.00;;;15.20;99.90;;;;;;5012519;28;20434;-67
2023/07/27 08:28:23;;;;;;;4.45;3.80;;;15.30;99.90;;;;;;5011916;28;20038;-68
2023/07/27 08:30:49;;;;;;;4.93;4.30;;;15.30;99.90;;;;;;5013136;28;20121;-68
2023/07/27 08:33:16;;;;;;;5.15;4.25;;;15.40;99.90;;;;;;5012730;28;20049;-66
2023/07/27 08:35:42;;;;;;;4.88;3.80;;;15.40;99.90;;;;;;5012098;28;20048;-68
2023/07/27 08:38:08;;;;;;;4.50;3.60;;;15.40;99.90;;;;;;5011382;28;20382;-67
2023/07/27 08:40:33;;;;;;;4.82;4.05;;;15.40;99.90;;;;;;5011358;28;20100;-67
2023/07/27 08:42:59;;;;;;;3.70;3.28;;;15.40;99.90;;;;;;5011792;28;20112;-69
2023/07/27 08:45:25;;;;;;;4.63;3.63;;;15.50;99.90;;;;;;5011667;28;20537;-68
2023/07/27 08:47:53;;;;;;;4.18;3.33;;;15.50;99.90;;;;;;5009234;28;20551;-69
2023/07/27 08:50:19;;;;;;;4.35;3.35;;;15.40;99.90;;;;;;5011758;28;20049;-67
2023/07/27 08:52:46;;;;;;;4.40;3.50;;;15.40;99.90;;;;;;5009802;28;20533;-67
2023/07/27 08:55:12;;;;;;;4.18;3.28;;;15.40;99.90;;;;;;5010939;28;20516;-67
2023/07/27 08:57:38;;;;;;;4.32;3.25;;;15.30;99.90;;;;;;5011131;28;20141;-67
2023/07/27 09:00:04;;;;;;;3.83;3.00;;;15.30;99.90;;;;;;5011847;28;20130;-67
2023/07/27 09:02:30;;;;;;;4.90;3.40;;;15.40;99.90;;;;;;5011848;28;20053;-67
2023/07/27 09:04:56;;;;;;;3.50;3.17;;;15.40;99.90;;;;;;5010612;28;20058;-67
2023/07/27 09:07:22;;;;;;;4.32;3.63;;;15.40;99.90;;;;;;5011731;28;20054;-71
2023/07/27 09:09:51;;;;;;;3.70;3.10;;;15.40;99.90;;;;;;5011564;28;20045;-68
2023/07/27 09:12:26;;;;;;;3.90;3.40;;;15.40;99.90;;;;;;5011534;28;20041;-67
2023/07/27 09:14:52;;;;;;;3.90;3.15;;;15.40;99.90;;;;;;5011316;28;20403;-67
2023/07/27 09:17:18;;;;;;;3.78;3.03;;;15.40;99.90;;;;;;5011541;28;20054;-69
2023/07/27 09:19:44;;;;;;;4.30;3.28;;;15.40;99.90;;;;;;5011319;28;20046;-67
2023/07/27 09:22:11;;;;;;;3.75;3.20;;;15.50;99.90;;;;;;5011620;28;20581;-68
2023/07/27 09:24:39;;;;;;;3.67;3.28;;;15.50;99.90;;;;;;5011563;28;20180;-68
2023/07/27 09:27:15;;;;;;;3.53;3.00;;;15.60;99.90;;;;;;5011254;28;20045;-68
2023/07/27 09:29:41;;;;;;;3.67;3.07;;;15.70;99.90;;;;;;4994166;28;20049;-70
2023/07/27 09:32:09;;;;;;;4.13;3.28;;;15.70;99.90;;;;;;5011530;28;20386;-69
2023/07/27 09:34:35;;;;;;;4.50;3.55;;;15.80;99.90;;;;;;5010636;28;20037;-68
2023/07/27 09:37:02;;;;;;;4.50;3.30;;;15.80;99.90;;;;;;5011491;28;20065;-69
2023/07/27 09:39:29;;;;;;;4.78;3.22;;;15.80;99.90;;;;;;5009463;28;20085;-69
2023/07/27 09:41:55;;;;;;;4.25;3.10;;;15.80;99.90;;;;;;5009148;28;20075;-68
2023/07/27 09:44:21;;;;;;;3.78;3.03;;;15.90;99.90;;;;;;5011243;28;20042;-68
2023/07/27 09:46:47;;;;;;;3.85;3.45;;;15.90;99.90;;;;;;5010798;28;20497;-67
2023/07/27 09:49:17;;;;;;;4.47;3.70;;;15.90;99.90;;;;;;5009781;28;20305;-67
2023/07/27 09:51:44;;;;;;;3.95;3.13;;;16.00;99.90;;;;;;5011217;28;20038;-69
2023/07/27 09:54:11;;;;;;;3.72;3.33;;;16.10;99.90;;;;;;5010864;28;20080;-68
2023/07/27 09:56:38;;;;;;;4.47;3.30;;;16.10;99.90;;;;;;5010898;28;20046;-69
2023/07/27 09:59:04;;;;;;;4.13;3.13;;;16.20;99.90;;;;;;5010984;28;20053;-68
2023/07/27 10:01:30;;;;;;;3.60;2.95;;;16.30;99.90;;;;;;5010073;28;20053;-67
2023/07/27 10:03:59;;;;;;;3.15;2.80;;;16.30;99.90;;;;;;5010249;28;20418;-68
2023/07/27 10:06:26;;;;;;;3.17;2.58;;;16.40;99.90;;;;;;5010785;28;20113;-68
2023/07/27 10:08:53;;;;;;;4.10;3.05;;;16.40;99.90;;;;;;5010751;28;20116;-70
2023/07/27 10:11:47;;;;;;;3.33;2.80;;;16.30;99.90;;;;;;5009383;28;20475;-67
2023/07/27 10:14:17;;;;;;;3.67;2.65;;;16.30;99.90;;;;;;5009842;28;20426;-68
2023/07/27 10:17:08;;;;;;;3.60;2.92;;;16.30;99.90;;;;;;5010958;28;20068;-67
2023/07/27 10:19:44;;;;;;;3.50;2.88;;;16.30;99.90;;;;;;5014399;28;20099;-68
2023/07/27 10:22:14;;;;;;;3.47;2.85;;;16.40;99.90;;;;;;5013819;28;20050;-69
2023/07/27 10:24:54;;;;;;;3.50;2.88;;;16.40;99.90;;;;;;5014224;28;20057;-67
2023/07/27 10:27:21;;;;;;;4.25;3.83;;;16.40;99.90;;;;;;5014550;28;20042;-68
2023/07/27 10:29:51;;;;;;;4.20;3.25;;;16.40;99.90;;;;;;5014175;28;20108;-69
2023/07/27 10:32:16;;;;;;;4.68;3.47;;;16.50;99.90;;;;;;5012511;28;20070;-67
2023/07/27 10:34:42;;;;;;;3.88;3.35;;;16.50;99.90;;;;;;5012860;28;20128;-68
2023/07/27 10:37:10;;;;;;;3.97;3.20;;;16.50;99.90;;;;;;5014544;28;20046;-66
2023/07/27 10:39:50;;;;;;;5.03;3.92;;;16.50;99.90;;;;;;5010196;28;20042;-66
2023/07/27 10:42:20;;;;;;;4.32;3.70;;;16.50;99.90;;;;;;5012807;28;20041;-66
2023/07/27 10:44:56;;;;;;;6.07;3.70;;;16.60;99.90;;;;;;5012528;28;20042;-66
2023/07/27 10:47:48;;;;;;;4.40;4.00;;;16.60;99.90;;;;;;5013262;28;20593;-66
2023/07/27 10:50:16;;;;;;;4.07;3.67;;;16.60;99.90;;;;;;5012946;28;20056;-66
2023/07/27 10:52:42;;;;;;;4.75;3.70;;;16.60;99.90;;;;;;5007283;28;20483;-66
2023/07/27 10:55:08;;;;;;;3.88;3.45;;;16.70;99.90;;;;;;5000754;28;20048;-66
2023/07/27 10:57:34;;;;;;;4.32;3.90;;;16.70;99.90;;;;;;5014325;28;20064;-66
2023/07/27 11:00:01;;;;;;;4.85;3.60;;;16.70;99.90;;;;;;5014067;28;20037;-67
2023/07/27 11:02:29;;;;;;;4.03;3.33;;;16.70;99.90;;;;;;5013760;28;20040;-66
2023/07/27 11:04:56;;;;;;;4.47;3.60;;;16.80;99.90;;;;;;5012561;28;20060;-66
2023/07/27 11:07:33;;;;;;;4.57;3.17;;;16.80;99.90;;;;;;5005187;28;20076;-73
2023/07/27 11:10:06;;;;;;;4.10;3.40;;;16.80;99.90;;;;;;5010190;28;20419;-73
2023/07/27 11:12:44;;;;;;;3.33;2.83;;;16.80;99.90;;;;;;5013481;28;20438;-74
2023/07/27 11:15:22;;;;;;;4.90;3.40;;;16.80;99.90;;;;;;5013291;28;20042;-73
2023/07/27 11:17:53;;;;;;;4.03;3.20;;;16.80;99.90;;;;;;5012189;28;20050;-73
2023/07/27 11:20:21;;;;;;;3.72;3.20;;;16.90;99.90;;;;;;5013099;28;20097;-72
2023/07/27 11:22:47;;;;;;;3.35;2.83;;;17.00;99.90;;;;;;5013719;28;20073;-73
2023/07/27 11:25:13;;;;;;;3.58;2.95;;;17.00;99.90;;;;;;5012965;28;20092;-73
2023/07/27 11:27:39;;;;;;;3.83;3.13;;;17.10;99.90;;;;;;5013653;28;20045;-71
2023/07/27 11:30:09;;;;;;;3.72;2.72;;;17.10;99.90;;;;;;5012153;28;20085;-73
2023/07/27 11:32:35;;;;;;;3.10;2.22;;;17.10;99.90;;;;;;5010991;28;20077;-73
2023/07/27 11:35:01;;;;;;;2.80;2.15;;;17.10;99.90;;;;;;5011122;28;20088;-76
2023/07/27 11:37:30;;;;;;;2.90;2.28;;;17.20;99.90;;;;;;5013240;28;20045;-71
2023/07/27 11:39:56;;;;;;;3.00;2.20;;;17.10;99.90;;;;;;5012633;28;20037;-72
2023/07/27 11:42:36;;;;;;;3.00;2.13;;;17.10;99.90;;;;;;5012248;28;20081;-76
2023/07/27 11:45:03;;;;;;;3.72;2.25;;;17.20;99.90;;;;;;5012232;28;20486;-74
2023/07/27 11:47:36;;;;;;;4.78;2.40;;;17.20;99.90;;;;;;5012633;28;20105;-71
2023/07/27 11:50:03;;;;;;;3.08;2.45;;;17.30;99.90;;;;;;5013150;28;20034;-72
2023/07/27 11:52:29;;;;;;;3.30;2.60;;;17.30;99.90;;;;;;5006572;28;20499;-71
2023/07/27 11:54:57;;;;;;;3.40;2.60;;;17.40;99.90;;;;;;5006680;28;20062;-73
2023/07/27 11:57:27;;;;;;;2.75;2.22;;;17.50;99.90;;;;;;5011685;28;20050;-73
2023/07/27 12:00:14;;;;;;;3.72;2.63;;;17.50;99.90;;;;;;5011661;28;20099;-71
2023/07/27 12:02:50;;;;;;;3.40;2.63;;;17.50;99.90;;;;;;5012728;28;20040;-74
2023/07/27 12:05:19;;;;;;;2.70;2.17;;;17.60;99.90;;;;;;5010668;28;20054;-73
2023/07/27 12:07:45;;;;;;;3.42;2.60;;;17.60;99.90;;;;;;5012657;28;20046;-74
2023/07/27 12:10:12;;;;;;;3.03;2.47;;;17.70;99.90;;;;;;5011443;28;20141;-72
2023/07/27 12:12:49;;;;;;;3.22;2.42;;;17.80;99.90;;;;;;5011498;28;20417;-76
2023/07/27 12:15:27;;;;;;;3.38;2.47;;;17.80;99.90;;;;;;5011984;28;20037;-74
2023/07/27 12:17:55;;;;;;;3.08;2.30;;;17.80;99.90;;;;;;5011646;28;20046;-76
2023/07/27 12:20:22;;;;;;;2.72;2.20;;;17.90;99.90;;;;;;5010995;28;20471;-72
2023/07/27 12:22:47;;;;;;;3.03;2.38;;;17.90;99.90;;;;;;5012682;28;20041;-82
2023/07/27 12:25:13;;;;;;;2.83;1.95;;;18.00;99.90;;;;;;5010630;28;20141;-71
2023/07/27 12:27:39;;;;;;;3.88;2.17;;;18.00;99.90;;;;;;5011289;28;20077;-74
2023/07/27 12:30:05;;;;;;;2.60;1.83;;;18.00;99.90;;;;;;5011289;28;20042;-80
2023/07/27 12:32:31;;;;;;;3.75;2.30;;;18.00;99.90;;;;;;5011332;28;20034;-80
2023/07/27 12:34:57;;;;;;;2.72;2.10;;;18.00;99.90;;;;;;5011610;28;20044;-74
2023/07/27 12:37:22;;;;;;;4.90;2.70;;;18.00;99.90;;;;;;4994470;28;20076;-75
2023/07/27 12:39:48;;;;;;;3.03;2.13;;;18.00;99.90;;;;;;5012129;28;20045;-78
2023/07/27 12:42:15;;;;;;;2.83;2.25;;;18.00;99.90;;;;;;5007290;28;20049;-77
2023/07/27 12:44:40;;;;;;;3.78;2.65;;;18.00;99.90;;;;;;4990824;28;20487;-77
2023/07/27 12:47:06;;;;;;;3.40;2.80;;;17.90;99.90;;;;;;5009276;28;20092;-75